Time;durP1;ratioP1;P1;durP2;ratioP2;P2;SDS_P1;SDS_P2;PMS_P1;PMS_P2;Temp;Humidity;BMP_temperature;BMP_pressure;BME280_temperature;BME280_humidity;BME280_pressure;Samples;Min_cycle;Max_cycle;Signal;HPM_P1;HPM_P2
2024/02/04 00:05:14;;;;;;;15.55;11.25;;;;;;;11.25;100.00;101983.75;10613318;27;20039;-76
2024/02/04 00:10:38;;;;;;;10.43;8.60;;;;;;;10.87;100.00;101975.47;10624508;27;20038;-75
2024/02/04 00:16:01;;;;;;;15.00;9.25;;;;;;;10.79;100.00;101961.09;10578379;27;20079;-75
2024/02/04 00:21:23;;;;;;;12.80;8.77;;;;;;;11.18;100.00;101967.69;10567248;27;20043;-75
2024/02/04 00:26:47;;;;;;;12.98;10.43;;;;;;;11.67;100.00;101974.53;10605859;27;20066;-75
2024/02/04 00:32:09;;;;;;;12.70;8.95;;;;;;;11.54;100.00;101977.66;10584137;27;20495;-75
2024/02/04 00:37:32;;;;;;;11.88;7.30;;;;;;;11.26;100.00;101982.91;10577523;27;20047;-75
2024/02/04 00:42:56;;;;;;;12.75;8.02;;;;;;;11.24;100.00;101966.09;10587898;27;20039;-75
2024/02/04 00:48:18;;;;;;;9.73;7.38;;;;;;;11.31;100.00;101962.78;10550956;27;20052;-75
2024/02/04 00:53:41;;;;;;;27.42;18.33;;;;;;;11.36;100.00;101962.09;10569588;27;20059;-75
2024/02/04 00:59:05;;;;;;;13.02;9.05;;;;;;;11.34;100.00;101961.16;10549302;27;20050;-76
2024/02/04 01:04:28;;;;;;;13.57;9.88;;;;;;;11.60;100.00;101964.63;10582828;27;20059;-75
2024/02/04 01:09:51;;;;;;;14.73;9.93;;;;;;;11.35;100.00;101960.31;10563438;27;20054;-75
2024/02/04 01:15:15;;;;;;;16.58;13.90;;;;;;;10.94;100.00;101951.03;10560120;28;20070;-75
2024/02/04 01:20:37;;;;;;;14.85;10.73;;;;;;;10.74;100.00;101947.72;10566903;28;20044;-75
2024/02/04 01:26:00;;;;;;;12.13;9.02;;;;;;;10.81;100.00;101948.84;10546407;28;20040;-75
2024/02/04 01:31:23;;;;;;;10.32;9.20;;;;;;;10.67;100.00;101950.09;10557768;28;20065;-75
2024/02/04 01:36:46;;;;;;;19.95;16.05;;;;;;;10.56;100.00;101955.03;10547430;28;20048;-75
2024/02/04 01:42:08;;;;;;;13.68;9.07;;;;;;;10.36;100.00;101946.41;10539005;28;20044;-75
2024/02/04 01:47:33;;;;;;;14.27;10.32;;;;;;;10.35;100.00;101951.63;10540881;28;20437;-75
2024/02/04 01:52:56;;;;;;;12.80;9.40;;;;;;;10.55;100.00;101940.03;10559771;28;20044;-75
2024/02/04 01:58:19;;;;;;;17.08;12.82;;;;;;;10.55;100.00;101936.50;10574190;28;20039;-75
2024/02/04 02:03:43;;;;;;;20.05;17.27;;;;;;;10.25;100.00;101931.91;10544534;28;20043;-76
2024/02/04 02:09:06;;;;;;;24.25;21.65;;;;;;;10.27;100.00;101938.16;10564257;28;20047;-74
2024/02/04 02:14:33;;;;;;;14.63;13.05;;;;;;;10.54;100.00;101922.38;10584912;27;20138;-75
2024/02/04 02:20:05;;;;;;;12.02;9.43;;;;;;;10.72;100.00;101928.28;10632162;27;20050;-75
2024/02/04 02:25:32;;;;;;;11.60;8.52;;;;;;;10.64;100.00;101940.31;10602294;27;20046;-74
2024/02/04 02:30:55;;;;;;;13.00;8.43;;;;;;;10.16;100.00;101938.59;10599251;27;20135;-75
2024/02/04 02:36:22;;;;;;;10.57;7.82;;;;;;;9.84;100.00;101930.41;10600275;27;20115;-75
2024/02/04 02:41:51;;;;;;;14.07;9.07;;;;;;;9.67;100.00;101930.59;10602606;27;20047;-74
2024/02/04 02:47:15;;;;;;;14.32;8.82;;;;;;;9.50;100.00;101922.97;10610041;27;20453;-75
2024/02/04 02:52:38;;;;;;;12.30;8.88;;;;;;;9.33;100.00;101934.56;10578482;27;20044;-74
2024/02/04 02:58:02;;;;;;;10.40;9.30;;;;;;;9.22;100.00;101937.59;10599690;27;20051;-75
2024/02/04 03:03:24;;;;;;;16.15;9.15;;;;;;;9.58;100.00;101929.38;10612781;27;20050;-75
2024/02/04 03:08:47;;;;;;;14.48;9.50;;;;;;;10.06;100.00;101925.88;10592120;27;20043;-74
2024/02/04 03:14:11;;;;;;;12.02;9.85;;;;;;;10.30;100.00;101929.47;10614385;27;20690;-75
2024/02/04 03:19:33;;;;;;;10.40;8.60;;;;;;;10.24;100.00;101922.19;10613418;27;20487;-75
2024/02/04 03:24:56;;;;;;;11.55;9.90;;;;;;;10.15;100.00;101936.78;10615597;27;20043;-75
2024/02/04 03:30:20;;;;;;;12.00;9.20;;;;;;;10.35;100.00;101936.69;10605285;27;20071;-75
2024/02/04 03:35:42;;;;;;;10.82;8.85;;;;;;;10.39;100.00;101937.69;10598735;27;20130;-75
2024/02/04 03:41:06;;;;;;;12.18;8.75;;;;;;;10.17;100.00;101921.97;10626835;27;20057;-75
2024/02/04 03:46:30;;;;;;;11.05;8.18;;;;;;;9.89;100.00;101933.19;10588501;27;20051;-74
2024/02/04 03:51:52;;;;;;;11.93;9.07;;;;;;;9.64;100.00;101931.41;10592822;27;20041;-75
2024/02/04 03:57:16;;;;;;;12.20;9.55;;;;;;;9.37;100.00;101932.97;10605530;27;20043;-75
2024/02/04 04:02:41;;;;;;;11.68;8.90;;;;;;;9.13;100.00;101930.22;10607760;27;20462;-74
2024/02/04 04:08:03;;;;;;;13.52;8.90;;;;;;;8.97;100.00;101935.72;10596743;27;20058;-75
2024/02/04 04:13:26;;;;;;;12.00;8.90;;;;;;;8.98;100.00;101934.91;10611784;27;20455;-75
2024/02/04 04:18:50;;;;;;;11.90;9.32;;;;;;;9.06;100.00;101941.34;10629661;27;20051;-75
2024/02/04 04:24:15;;;;;;;13.23;8.77;;;;;;;8.92;100.00;101947.81;10624009;27;20047;-74
2024/02/04 04:29:38;;;;;;;13.70;9.73;;;;;;;9.27;100.00;101944.84;10627135;27;20038;-74
2024/02/04 04:35:02;;;;;;;17.40;10.30;;;;;;;9.48;100.00;101958.88;10638780;27;20111;-75
2024/02/04 04:40:24;;;;;;;12.88;9.10;;;;;;;9.75;100.00;101951.16;10647570;27;20547;-74
2024/02/04 04:45:46;;;;;;;10.57;9.18;;;;;;;9.84;100.00;101947.97;10607302;27;20047;-75
2024/02/04 04:51:13;;;;;;;13.93;9.75;;;;;;;9.83;100.00;101951.44;10593581;27;20058;-74
2024/02/04 04:56:39;;;;;;;15.57;9.98;;;;;;;9.70;100.00;101952.72;10595205;27;20387;-76
2024/02/04 05:02:02;;;;;;;12.98;10.20;;;;;;;9.55;100.00;101960.03;10588858;27;20435;-75
2024/02/04 05:07:26;;;;;;;16.40;11.07;;;;;;;9.42;100.00;101965.66;10623798;27;20042;-75
2024/02/04 05:12:48;;;;;;;19.83;12.73;;;;;;;9.15;100.00;101957.53;10612457;27;20063;-75
2024/02/04 05:18:11;;;;;;;11.77;9.68;;;;;;;9.06;100.00;101959.78;10608506;27;20630;-75
2024/02/04 05:23:35;;;;;;;14.77;12.05;;;;;;;9.09;100.00;101962.56;10589566;27;20050;-75
2024/02/04 05:28:57;;;;;;;19.17;14.93;;;;;;;9.23;100.00;101982.47;10615426;27;20508;-75
2024/02/04 05:34:20;;;;;;;28.67;24.85;;;;;;;9.28;100.00;101978.28;10592089;27;20050;-75
2024/02/04 05:39:44;;;;;;;19.20;15.30;;;;;;;9.53;100.00;101980.13;10606541;27;20070;-75
2024/02/04 05:45:07;;;;;;;25.20;17.65;;;;;;;9.80;100.00;101983.84;10603227;27;20131;-75
2024/02/04 05:50:29;;;;;;;21.83;19.00;;;;;;;10.01;100.00;101991.69;10597202;27;20051;-75
2024/02/04 05:55:54;;;;;;;16.85;12.23;;;;;;;10.20;100.00;101993.28;10610902;27;20056;-75
2024/02/04 06:01:17;;;;;;;13.68;9.93;;;;;;;10.28;100.00;101997.13;10609827;27;20043;-75
2024/02/04 06:06:39;;;;;;;10.57;8.95;;;;;;;10.30;100.00;101995.44;10643229;27;20539;-76
2024/02/04 06:12:06;;;;;;;13.80;9.90;;;;;;;11.16;100.00;101990.53;10601104;27;20058;-76
2024/02/04 06:17:28;;;;;;;11.00;9.05;;;;;;;12.05;100.00;101986.28;10611438;27;20042;-75
2024/02/04 06:22:51;;;;;;;10.95;8.93;;;;;;;13.50;100.00;101989.28;10617886;27;20039;-75
2024/02/04 06:28:15;;;;;;;15.10;8.88;;;;;;;13.96;100.00;101991.22;10612973;27;20383;-75
2024/02/04 06:33:38;;;;;;;11.68;9.13;;;;;;;16.07;100.00;101982.50;10589435;27;20043;-76
2024/02/04 06:39:00;;;;;;;10.20;8.20;;;;;;;18.61;77.32;101975.59;10623895;27;20042;-75
2024/02/04 06:44:24;;;;;;;10.70;7.38;;;;;;;19.75;66.66;101977.38;10591648;27;20120;-75
2024/02/04 06:49:47;;;;;;;10.30;8.50;;;;;;;20.26;61.62;101982.56;10599853;27;20070;-76
2024/02/04 06:55:10;;;;;;;11.75;9.15;;;;;;;21.24;57.30;101973.91;10588664;27;20669;-76
2024/02/04 07:00:34;;;;;;;15.18;11.73;;;;;;;22.29;51.87;101978.13;10588182;27;20059;-76
2024/02/04 07:05:56;;;;;;;18.92;14.30;;;;;;;23.09;50.68;101976.97;10599390;28;20043;-76
2024/02/04 07:11:19;;;;;;;16.42;12.88;;;;;;;24.28;46.08;101969.34;10595134;27;20047;-76
2024/02/04 07:16:43;;;;;;;10.18;7.60;;;;;;;25.15;43.05;101974.50;10560229;28;20522;-76
2024/02/04 07:22:05;;;;;;;12.18;10.88;;;;;;;25.89;41.20;101973.44;10544601;28;20113;-76
2024/02/04 07:27:28;;;;;;;14.43;12.50;;;;;;;26.39;39.06;101980.97;10558056;28;20129;-76
2024/02/04 07:32:52;;;;;;;9.50;8.50;;;;;;;25.69;38.78;101972.19;10557231;28;20528;-76
2024/02/04 07:38:15;;;;;;;11.68;8.30;;;;;;;25.67;38.44;101975.84;10570408;28;20062;-77
2024/02/04 07:43:37;;;;;;;13.38;10.60;;;;;;;22.49;43.32;101968.88;10546239;28;20070;-76
2024/02/04 07:49:02;;;;;;;14.65;10.60;;;;;;;22.90;43.93;101976.38;10542387;28;20134;-76
2024/02/04 07:54:24;;;;;;;18.10;13.43;;;;;;;26.07;37.45;101975.59;10556911;28;20047;-76
2024/02/04 07:59:47;;;;;;;7.43;6.28;;;;;;;28.20;34.01;101979.38;10563401;28;20039;-77
2024/02/04 08:05:11;;;;;;;14.25;12.20;;;;;;;28.84;32.85;101972.28;10575791;28;20449;-77
2024/02/04 08:10:33;;;;;;;13.95;9.32;;;;;;;29.60;31.60;101969.06;10576766;28;20047;-77
2024/02/04 08:15:56;;;;;;;12.18;10.88;;;;;;;30.67;30.14;101967.69;10554066;28;20135;-77
2024/02/04 08:21:20;;;;;;;21.20;18.20;;;;;;;31.13;28.63;101969.94;10577300;28;20055;-77
2024/02/04 08:26:43;;;;;;;17.55;15.75;;;;;;;30.76;28.23;101972.72;10576446;28;20103;-77
2024/02/04 08:32:06;;;;;;;16.95;15.18;;;;;;;30.53;28.38;101964.75;10561014;28;20055;-78
2024/02/04 08:37:30;;;;;;;23.30;16.45;;;;;;;30.48;27.86;101959.50;10575346;28;20031;-77
2024/02/04 08:42:52;;;;;;;10.85;9.73;;;;;;;30.10;28.05;101959.50;10548189;28;20089;-77
2024/02/04 08:48:15;;;;;;;42.92;38.20;;;;;;;30.99;26.84;101964.25;10552019;28;20050;-77
2024/02/04 08:53:39;;;;;;;19.95;17.00;;;;;;;32.51;25.44;101953.38;10560183;28;20046;-77
2024/02/04 08:59:02;;;;;;;25.40;20.35;;;;;;;33.65;24.48;101954.81;10557550;28;20043;-77
2024/02/04 09:04:24;;;;;;;11.88;8.85;;;;;;;29.62;27.55;101957.13;10571455;28;20048;-77
2024/02/04 09:09:48;;;;;;;27.40;18.38;;;;;;;27.10;29.64;101956.16;10574923;28;20051;-77
2024/02/04 09:15:12;;;;;;;20.23;17.75;;;;;;;25.03;31.81;101953.19;10587555;27;20153;-76
2024/02/04 09:20:34;;;;;;;10.02;8.70;;;;;;;24.22;32.41;101940.66;10528052;27;20091;-77
2024/02/04 09:25:59;;;;;;;21.10;12.77;;;;;;;23.34;33.14;101947.78;10582607;27;20112;-76
2024/02/04 09:31:21;;;;;;;11.57;9.60;;;;;;;23.10;33.49;101934.75;10560556;27;20054;-77
2024/02/04 09:36:44;;;;;;;15.73;12.43;;;;;;;22.90;34.22;101937.78;10558891;27;20364;-77
2024/02/04 09:42:09;;;;;;;9.40;6.97;;;;;;;22.96;33.62;101937.69;10601976;27;20487;-77
2024/02/04 09:47:33;;;;;;;10.27;7.63;;;;;;;22.81;33.75;101927.16;10589638;27;20076;-77
2024/02/04 09:53:00;;;;;;;5.97;4.75;;;;;;;22.95;33.56;101917.03;10510477;28;20438;-77
2024/02/04 09:58:24;;;;;;;6.97;5.25;;;;;;;23.04;32.68;101909.66;10546852;27;20066;-76
2024/02/04 10:03:48;;;;;;;6.78;4.90;;;;;;;22.93;32.57;101905.41;10559345;28;20406;-77
2024/02/04 10:09:11;;;;;;;12.13;7.45;;;;;;;22.66;33.13;101895.94;10545249;28;20044;-76
2024/02/04 10:14:36;;;;;;;9.10;7.28;;;;;;;22.52;33.45;101884.50;10572280;27;20217;-77
2024/02/04 10:19:59;;;;;;;11.48;7.03;;;;;;;22.75;32.73;101886.84;10587145;27;20061;-77
2024/02/04 10:25:22;;;;;;;7.13;4.80;;;;;;;22.76;33.07;101881.47;10624295;27;20051;-77
2024/02/04 10:30:46;;;;;;;7.05;6.07;;;;;;;22.88;32.34;101869.56;10629829;27;20505;-77
2024/02/04 10:36:10;;;;;;;7.53;4.82;;;;;;;22.75;32.36;101865.31;10575529;27;20535;-77
2024/02/04 10:41:35;;;;;;;9.82;6.13;;;;;;;22.60;32.43;101855.66;10572262;27;20043;-77
2024/02/04 10:47:06;;;;;;;35.95;21.38;;;;;;;22.29;32.89;101846.28;10600467;28;20054;-77
2024/02/04 10:52:29;;;;;;;13.60;9.90;;;;;;;22.15;33.58;101839.31;10586975;27;20509;-77
2024/02/04 10:57:52;;;;;;;12.18;10.02;;;;;;;22.07;33.66;101825.09;10586759;28;20050;-77
2024/02/04 11:03:18;;;;;;;11.48;10.00;;;;;;;21.96;33.74;101827.06;10584800;28;20061;-77
2024/02/04 11:08:41;;;;;;;11.90;10.77;;;;;;;21.90;33.66;101812.78;10585887;28;20043;-76
2024/02/04 11:14:07;;;;;;;20.38;15.68;;;;;;;21.82;33.83;101804.81;10567220;28;20117;-77
2024/02/04 11:19:46;;;;;;;11.40;8.95;;;;;;;21.79;34.72;101802.19;10543078;28;20067;-77
2024/02/04 11:25:32;;;;;;;8.57;6.97;;;;;;;21.27;36.44;101815.34;10561561;28;20063;-76
2024/02/04 11:30:56;;;;;;;9.75;6.55;;;;;;;20.95;36.71;101813.00;10579950;28;20470;-76
2024/02/04 11:36:25;;;;;;;9.70;6.50;;;;;;;20.65;37.19;101801.66;10550606;28;20044;-76
2024/02/04 11:41:48;;;;;;;7.32;6.13;;;;;;;20.34;37.39;101805.53;10551344;28;20058;-76
2024/02/04 11:47:11;;;;;;;9.90;6.30;;;;;;;19.98;37.66;101800.38;10550846;28;20108;-76
2024/02/04 11:52:35;;;;;;;17.20;13.15;;;;;;;19.70;38.92;101800.53;10547927;28;20044;-77
2024/02/04 11:58:00;;;;;;;8.57;6.88;;;;;;;19.61;39.16;101797.03;10563336;28;20052;-76
2024/02/04 12:03:31;;;;;;;9.20;7.13;;;;;;;19.82;38.75;101805.81;10563194;28;20491;-76
2024/02/04 12:08:55;;;;;;;13.02;9.60;;;;;;;20.11;38.42;101802.97;10550307;28;20092;-76
2024/02/04 12:14:19;;;;;;;9.90;7.68;;;;;;;20.21;37.31;101795.75;10568810;27;20130;-76
2024/02/04 12:19:42;;;;;;;7.75;6.20;;;;;;;20.23;38.14;101807.34;10591876;27;20100;-76
2024/02/04 12:25:07;;;;;;;8.02;6.15;;;;;;;20.22;39.48;101806.44;10563864;27;20043;-76
2024/02/04 12:30:31;;;;;;;7.68;6.28;;;;;;;20.38;40.59;101801.00;10572197;27;20044;-77
2024/02/04 12:35:55;;;;;;;9.93;6.78;;;;;;;20.36;41.38;101797.44;10564960;27;20055;-76
2024/02/04 12:41:20;;;;;;;14.13;9.52;;;;;;;20.13;42.46;101805.63;10571970;27;20052;-76
2024/02/04 12:46:42;;;;;;;13.75;9.10;;;;;;;19.84;43.03;101798.66;10562254;27;20042;-77
2024/02/04 12:52:06;;;;;;;12.40;9.13;;;;;;;19.69;43.52;101790.69;10515877;27;20568;-76
2024/02/04 12:57:30;;;;;;;11.93;9.57;;;;;;;19.73;43.69;101787.13;10523854;27;20076;-77
2024/02/04 13:02:52;;;;;;;17.10;12.30;;;;;;;19.90;43.71;101792.38;10576980;27;20047;-77
2024/02/04 13:08:15;;;;;;;8.32;7.47;;;;;;;20.00;43.69;101787.84;10567091;27;20055;-75
2024/02/04 13:13:39;;;;;;;8.52;7.63;;;;;;;19.99;43.69;101781.59;10537290;27;20156;-74
2024/02/04 13:19:04;;;;;;;9.75;7.28;;;;;;;20.23;43.63;101775.16;10603460;27;20110;-76
2024/02/04 13:24:27;;;;;;;34.75;12.23;;;;;;;20.32;43.46;101774.19;10580558;27;20050;-75
2024/02/04 13:29:51;;;;;;;9.93;7.75;;;;;;;20.20;43.62;101772.50;10605343;27;20046;-75
2024/02/04 13:35:15;;;;;;;14.18;7.60;;;;;;;20.28;43.97;101768.00;10592192;27;20089;-75
2024/02/04 13:40:39;;;;;;;14.68;8.18;;;;;;;20.43;44.10;101766.97;10597516;27;20134;-75
2024/02/04 13:46:05;;;;;;;9.85;6.95;;;;;;;20.42;45.05;101775.91;10599498;27;20639;-76
2024/02/04 13:51:27;;;;;;;16.52;10.60;;;;;;;20.67;45.72;101778.41;10609123;27;20141;-76
2024/02/04 13:56:50;;;;;;;12.13;8.68;;;;;;;20.92;44.95;101770.09;10580321;27;20095;-77
2024/02/04 14:02:15;;;;;;;13.70;9.50;;;;;;;20.43;46.05;101767.88;10573819;27;20051;-75
2024/02/04 14:07:38;;;;;;;8.98;6.30;;;;;;;20.03;47.72;101771.72;10584872;27;20043;-76
2024/02/04 14:13:01;;;;;;;8.05;5.10;;;;;;;19.98;49.43;101773.56;10587798;27;20403;-77
2024/02/04 14:18:25;;;;;;;9.02;6.65;;;;;;;19.83;51.70;101769.19;10578093;27;20493;-77
2024/02/04 14:23:47;;;;;;;11.98;6.63;;;;;;;19.50;53.50;101764.91;10578097;27;20054;-76
2024/02/04 14:29:10;;;;;;;12.45;9.73;;;;;;;19.15;55.67;101777.53;10593042;27;20057;-76
2024/02/04 14:34:34;;;;;;;21.02;14.48;;;;;;;18.77;58.29;101775.84;10576573;27;20039;-77
2024/02/04 14:39:57;;;;;;;17.70;11.02;;;;;;;18.52;60.54;101784.75;10605938;27;20567;-75
2024/02/04 14:45:20;;;;;;;11.13;8.07;;;;;;;18.16;64.91;101786.53;10575710;27;20043;-76
2024/02/04 14:50:45;;;;;;;20.67;11.02;;;;;;;17.87;69.66;101799.84;10582769;28;20126;-76
2024/02/04 14:56:08;;;;;;;13.45;8.73;;;;;;;17.60;74.08;101793.47;10593387;27;20106;-76
2024/02/04 15:01:30;;;;;;;15.80;9.10;;;;;;;17.18;80.20;101799.56;10592880;27;20095;-75
2024/02/04 15:06:57;;;;;;;16.58;9.88;;;;;;;16.78;85.79;101803.75;10581923;27;20042;-75
2024/02/04 15:12:20;;;;;;;15.15;9.90;;;;;;;16.41;90.06;101810.56;10609716;27;20157;-76
2024/02/04 15:17:43;;;;;;;24.40;16.25;;;;;;;16.16;94.34;101812.06;10527539;27;20043;-76
2024/02/04 15:23:09;;;;;;;21.83;14.57;;;;;;;16.02;96.66;101813.69;10553059;28;20052;-76
2024/02/04 15:28:32;;;;;;;35.72;24.33;;;;;;;16.11;95.94;101813.81;10557653;27;20035;-76
2024/02/04 15:33:56;;;;;;;31.77;20.55;;;;;;;16.09;95.94;101823.53;10543865;28;20051;-76
2024/02/04 15:39:20;;;;;;;24.42;16.70;;;;;;;16.02;95.86;101837.69;10552257;27;20243;-76
2024/02/04 15:44:43;;;;;;;45.00;31.67;;;;;;;15.82;96.86;101829.47;10556189;27;20044;-78
2024/02/04 15:50:08;;;;;;;34.00;21.58;;;;;;;15.54;99.54;101834.50;10529436;27;20197;-76
2024/02/04 15:55:33;;;;;;;16.98;11.57;;;;;;;15.31;100.00;101838.56;10552162;28;20126;-77
2024/02/04 16:00:56;;;;;;;15.23;9.40;;;;;;;15.07;100.00;101841.78;10540194;28;20051;-75
2024/02/04 16:06:19;;;;;;;18.40;15.18;;;;;;;14.89;100.00;101854.81;10552384;27;20048;-77
2024/02/04 16:11:50;;;;;;;28.33;17.02;;;;;;;14.80;100.00;101854.66;10545815;27;20126;-77
2024/02/04 16:17:16;;;;;;;28.38;18.55;;;;;;;14.70;100.00;101863.38;10530556;27;20051;-77
2024/02/04 16:22:39;;;;;;;21.38;16.50;;;;;;;14.72;100.00;101865.16;10560219;28;20044;-76
2024/02/04 16:28:03;;;;;;;69.78;49.60;;;;;;;14.62;100.00;101865.91;10527634;28;20101;-76
2024/02/04 16:33:25;;;;;;;26.27;18.40;;;;;;;14.49;100.00;101871.88;10534227;28;20056;-77
2024/02/04 16:38:48;;;;;;;15.80;11.13;;;;;;;14.66;100.00;101866.84;10531726;27;20557;-77
2024/02/04 16:44:13;;;;;;;13.52;9.52;;;;;;;14.61;100.00;101865.88;10547198;27;20487;-76
2024/02/04 16:49:36;;;;;;;20.17;14.57;;;;;;;14.53;100.00;101855.09;10541237;27;20036;-76
2024/02/04 16:54:58;;;;;;;15.32;12.23;;;;;;;14.45;100.00;101863.81;10541869;27;20142;-76
2024/02/04 17:00:24;;;;;;;14.80;9.68;;;;;;;14.32;100.00;101867.97;10539313;28;20051;-77
2024/02/04 17:05:47;;;;;;;21.60;12.73;;;;;;;14.38;100.00;101854.81;10533479;27;20048;-77
2024/02/04 17:11:10;;;;;;;18.42;11.27;;;;;;;14.41;100.00;101846.03;10540070;27;20505;-77
2024/02/04 17:16:46;;;;;;;25.75;18.60;;;;;;;14.07;100.00;101836.53;10567516;27;20042;-77
2024/02/04 17:22:15;;;;;;;17.27;11.05;;;;;;;13.74;100.00;101831.47;10561368;27;20057;-76
2024/02/04 17:27:39;;;;;;;14.98;7.75;;;;;;;13.46;100.00;101830.00;10563408;27;20053;-77
2024/02/04 17:33:04;;;;;;;9.90;6.70;;;;;;;13.18;100.00;101841.78;10557067;27;20050;-77
2024/02/04 17:38:27;;;;;;;13.57;8.05;;;;;;;13.12;100.00;101863.75;10569508;27;20425;-77
2024/02/04 17:43:49;;;;;;;13.57;8.23;;;;;;;12.86;100.00;101883.44;10558815;27;20167;-77
2024/02/04 17:49:13;;;;;;;14.52;8.30;;;;;;;12.72;100.00;101885.75;10569475;27;20051;-75
2024/02/04 17:54:36;;;;;;;10.77;6.57;;;;;;;12.45;100.00;101870.88;10545313;28;20090;-75
2024/02/04 18:00:00;;;;;;;10.88;6.78;;;;;;;12.59;100.00;101866.84;10582304;27;20135;-75
2024/02/04 18:05:24;;;;;;;16.15;11.00;;;;;;;12.60;100.00;101873.94;10548026;27;20134;-75
2024/02/04 18:10:46;;;;;;;16.95;11.43;;;;;;;12.67;100.00;101871.44;10554425;27;20032;-76
2024/02/04 18:16:10;;;;;;;10.73;8.07;;;;;;;12.70;100.00;101873.28;10530132;27;20277;-76
2024/02/04 18:21:34;;;;;;;15.80;8.07;;;;;;;12.60;100.00;101874.81;10523296;27;20097;-77
2024/02/04 18:26:56;;;;;;;10.43;6.35;;;;;;;12.73;100.00;101873.38;10554095;27;20044;-77
2024/02/04 18:32:20;;;;;;;13.27;7.93;;;;;;;12.58;100.00;101871.25;10552884;28;20042;-74
2024/02/04 18:37:44;;;;;;;11.77;7.50;;;;;;;12.37;100.00;101871.59;10554660;28;20483;-74
2024/02/04 18:43:07;;;;;;;11.43;7.53;;;;;;;12.21;100.00;101869.38;10533810;28;20186;-74
2024/02/04 18:48:30;;;;;;;12.82;8.32;;;;;;;12.01;100.00;101869.72;10549639;28;20051;-76
2024/02/04 18:53:54;;;;;;;14.68;7.60;;;;;;;11.94;100.00;101874.84;10537428;28;20040;-74
2024/02/04 18:59:17;;;;;;;10.60;6.63;;;;;;;11.82;100.00;101881.50;10531901;28;20056;-75
2024/02/04 19:04:41;;;;;;;12.95;7.53;;;;;;;11.73;100.00;101889.16;10547022;28;20102;-74
2024/02/04 19:10:06;;;;;;;12.85;7.88;;;;;;;11.64;100.00;101897.72;10557624;28;20074;-77
2024/02/04 19:15:28;;;;;;;21.13;11.93;;;;;;;11.65;100.00;101896.88;10554878;28;20047;-74
2024/02/04 19:20:51;;;;;;;18.50;11.05;;;;;;;11.53;100.00;101901.81;10538623;28;20144;-76
2024/02/04 19:26:16;;;;;;;28.90;15.82;;;;;;;11.58;100.00;101916.97;10524884;28;20093;-73
2024/02/04 19:31:40;;;;;;;68.18;37.13;;;;;;;11.54;100.00;101908.91;10545414;28;20197;-74
2024/02/04 19:37:03;;;;;;;89.38;50.25;;;;;;;11.52;100.00;101919.41;10536773;28;20051;-74
2024/02/04 19:42:28;;;;;;;64.60;41.97;;;;;;;11.48;100.00;101908.72;10532871;28;20097;-74
2024/02/04 19:47:50;;;;;;;21.85;13.80;;;;;;;11.51;100.00;101914.06;10541037;28;20086;-75
2024/02/04 19:53:13;;;;;;;18.60;12.35;;;;;;;11.67;100.00;101907.50;10570087;27;20138;-75
2024/02/04 19:58:37;;;;;;;68.95;40.22;;;;;;;11.82;100.00;101902.69;10539778;28;20046;-75
2024/02/04 20:03:59;;;;;;;12.50;7.90;;;;;;;11.47;100.00;101909.56;10532841;28;20380;-76
2024/02/04 20:09:23;;;;;;;14.75;10.30;;;;;;;11.28;100.00;101909.84;10553533;28;20043;-74
2024/02/04 20:14:48;;;;;;;17.95;11.55;;;;;;;11.24;100.00;101915.88;10571514;27;20112;-75
2024/02/04 20:20:12;;;;;;;13.43;8.73;;;;;;;11.10;100.00;101916.31;10599179;27;21159;-75
2024/02/04 20:25:36;;;;;;;13.43;7.22;;;;;;;11.01;100.00;101923.09;10588537;27;20486;-74
2024/02/04 20:31:02;;;;;;;10.57;8.05;;;;;;;11.03;100.00;101914.34;10587405;27;20169;-76
2024/02/04 20:36:25;;;;;;;9.80;8.25;;;;;;;11.03;100.00;101929.28;10602275;27;20502;-75
2024/02/04 20:41:48;;;;;;;15.50;8.20;;;;;;;10.86;100.00;101931.41;10618704;27;20115;-76
2024/02/04 20:47:12;;;;;;;11.10;6.78;;;;;;;10.96;100.00;101940.53;10602616;27;20051;-75
2024/02/04 20:52:34;;;;;;;12.68;7.65;;;;;;;10.92;100.00;101939.50;10604451;27;20502;-75
2024/02/04 20:57:58;;;;;;;14.77;9.18;;;;;;;11.02;100.00;101940.72;10578800;27;20561;-75
2024/02/04 21:03:22;;;;;;;15.00;7.10;;;;;;;10.97;100.00;101939.66;10588464;27;20046;-75
2024/02/04 21:08:45;;;;;;;19.42;9.45;;;;;;;10.92;100.00;101941.25;10589551;27;20055;-76
2024/02/04 21:14:07;;;;;;;11.10;7.47;;;;;;;10.73;100.00;101940.66;10606762;27;20050;-75
2024/02/04 21:19:31;;;;;;;12.07;7.95;;;;;;;10.55;100.00;101936.50;10598815;27;20047;-75
2024/02/04 21:24:54;;;;;;;21.85;12.18;;;;;;;10.52;100.00;101944.28;10620559;27;20042;-74
2024/02/04 21:30:17;;;;;;;32.40;18.02;;;;;;;10.61;100.00;101928.78;10601024;27;20162;-75
2024/02/04 21:35:41;;;;;;;13.13;8.90;;;;;;;10.49;100.00;101941.56;10624720;27;20047;-75
2024/02/04 21:41:06;;;;;;;17.17;9.98;;;;;;;10.38;100.00;101938.53;10631978;27;20516;-76
2024/02/04 21:46:29;;;;;;;31.13;19.77;;;;;;;10.38;100.00;101949.09;10626714;27;20053;-76
2024/02/04 21:51:53;;;;;;;22.58;15.32;;;;;;;10.58;100.00;101926.91;10595704;27;20038;-76
2024/02/04 21:57:16;;;;;;;13.60;8.30;;;;;;;10.66;100.00;101920.16;10588741;27;20082;-76
2024/02/04 22:02:38;;;;;;;19.30;13.15;;;;;;;10.61;100.00;101916.47;10589041;27;20043;-76
2024/02/04 22:08:03;;;;;;;12.02;8.82;;;;;;;10.57;100.00;101901.34;10588610;27;20039;-76
2024/02/04 22:13:26;;;;;;;12.20;7.45;;;;;;;10.61;100.00;101908.56;10588197;27;20120;-76
2024/02/04 22:18:49;;;;;;;17.38;9.35;;;;;;;10.67;100.00;101910.50;10573891;28;20043;-76
2024/02/04 22:24:13;;;;;;;12.38;8.07;;;;;;;10.36;100.00;101912.09;10587601;27;20130;-76
2024/02/04 22:29:37;;;;;;;12.48;7.30;;;;;;;10.55;100.00;101918.00;10558875;28;20170;-76
2024/02/04 22:34:59;;;;;;;12.30;9.27;;;;;;;10.54;100.00;101921.50;10519325;27;20403;-76
2024/02/04 22:40:26;;;;;;;17.13;12.45;;;;;;;10.33;100.00;101926.91;10587715;27;20097;-75
2024/02/04 22:45:49;;;;;;;14.75;10.32;;;;;;;10.24;100.00;101919.56;10586909;27;20499;-76
2024/02/04 22:51:12;;;;;;;17.95;11.65;;;;;;;10.19;100.00;101931.69;10502579;28;20562;-76
2024/02/04 22:56:36;;;;;;;13.43;10.48;;;;;;;10.15;100.00;101921.84;10554771;28;20350;-76
2024/02/04 23:01:58;;;;;;;12.52;7.80;;;;;;;9.93;100.00;101922.81;10558503;28;20074;-75
2024/02/04 23:07:21;;;;;;;8.80;7.32;;;;;;;9.83;100.00;101933.88;10558527;28;20487;-76
2024/02/04 23:12:45;;;;;;;10.48;6.60;;;;;;;9.75;100.00;101934.41;10582265;28;20533;-76
2024/02/04 23:18:08;;;;;;;9.10;6.55;;;;;;;9.83;100.00;101928.59;10586750;27;20047;-76
2024/02/04 23:23:31;;;;;;;10.30;7.03;;;;;;;9.94;100.00;101926.34;10545667;27;20043;-75
2024/02/04 23:28:55;;;;;;;10.10;8.18;;;;;;;9.82;100.00;101925.91;10567760;27;20373;-75
2024/02/04 23:34:20;;;;;;;9.43;6.90;;;;;;;9.69;100.00;101919.28;10526594;28;20135;-75
2024/02/04 23:39:43;;;;;;;7.97;5.55;;;;;;;9.81;100.00;101914.44;10510060;28;20048;-76
2024/02/04 23:45:08;;;;;;;8.98;6.43;;;;;;;9.80;100.00;101906.47;10591128;27;20125;-76
2024/02/04 23:50:31;;;;;;;8.25;6.07;;;;;;;9.71;100.00;101914.06;10571908;27;20047;-76
2024/02/04 23:55:54;;;;;;;10.43;6.30;;;;;;;9.58;100.00;101916.22;10575360;28;20039;-75
